createdAt,value
2019-05-01T00:00:56.298Z,96324.92
2019-05-01T00:03:25.775Z,96327.90
2019-05-01T00:05:58.420Z,96327.56
2019-05-01T00:08:26.081Z,96326.36
2019-05-01T00:10:52.992Z,96328.05
2019-05-01T00:13:20.122Z,96321.38
2019-05-01T00:15:47.330Z,96322.09
2019-05-01T00:18:16.524Z,96317.69
2019-05-01T00:20:43.464Z,96320.33
2019-05-01T00:23:10.565Z,96318.04
2019-05-01T00:25:37.724Z,96320.56
2019-05-01T00:28:05.578Z,96314.59
2019-05-01T00:30:33.471Z,96316.41
2019-05-01T00:33:00.382Z,96316.97
2019-05-01T00:35:27.628Z,96315.53
2019-05-01T00:37:54.626Z,96321.78
2019-05-01T00:40:21.455Z,96319.18
2019-05-01T00:42:48.659Z,96314.77
2019-05-01T00:45:16.020Z,96317.34
2019-05-01T00:47:43.019Z,96323.11
2019-05-01T00:50:10.458Z,96320.84
2019-05-01T00:52:37.580Z,96321.84
2019-05-01T00:55:08.626Z,96324.66
2019-05-01T00:57:37.759Z,96319.13
2019-05-01T01:00:23.788Z,96315.84
2019-05-01T01:02:53.652Z,96323.05
2019-05-01T01:05:20.914Z,96329.94
2019-05-01T01:07:48.315Z,96325.88
2019-05-01T01:10:15.530Z,96325.88
2019-05-01T01:12:42.852Z,96325.08
2019-05-01T01:15:10.282Z,96323.50
2019-05-01T01:17:37.378Z,96324.86
2019-05-01T01:20:04.814Z,96327.34
2019-05-01T01:22:32.210Z,96324.63
2019-05-01T01:25:00.279Z,96322.63
2019-05-01T01:27:27.686Z,96311.31
2019-05-01T01:29:55.025Z,96311.09
2019-05-01T01:32:22.335Z,96306.23
2019-05-01T01:34:49.470Z,96313.58
2019-05-01T01:37:16.667Z,96310.41
2019-05-01T01:39:44.267Z,96314.74
2019-05-01T01:42:13.336Z,96314.44
2019-05-01T01:44:51.319Z,96315.22
2019-05-01T01:47:18.459Z,96312.98
2019-05-01T01:49:45.819Z,96304.99
2019-05-01T01:52:13.809Z,96303.55
2019-05-01T01:54:40.998Z,96301.75
2019-05-01T01:57:09.045Z,96301.09
2019-05-01T01:59:36.847Z,96294.11
2019-05-01T02:02:12.755Z,96294.58
2019-05-01T02:04:41.969Z,96293.67
2019-05-01T02:07:09.310Z,96296.52
2019-05-01T02:09:36.865Z,96286.91
2019-05-01T02:12:04.483Z,96293.56
2019-05-01T02:14:31.861Z,96295.71
2019-05-01T02:16:58.866Z,96287.95
2019-05-01T02:19:26.182Z,96288.70
2019-05-01T02:21:53.304Z,96281.28
2019-05-01T02:24:20.586Z,96286.24
2019-05-01T02:26:52.183Z,96282.64
2019-05-01T02:29:37.049Z,96280.84
2019-05-01T02:32:04.569Z,96278.69
2019-05-01T02:34:32.572Z,96271.69
2019-05-01T02:37:02.447Z,96276.88
2019-05-01T02:39:31.186Z,96270.89
2019-05-01T02:42:00.949Z,96268.87
2019-05-01T02:44:42.621Z,96265.27
2019-05-01T02:47:15.301Z,96263.45
2019-05-01T02:49:53.851Z,96260.97
2019-05-01T02:52:26.776Z,96258.82
2019-05-01T02:54:57.690Z,96254.08
2019-05-01T02:57:25.007Z,96256.33
2019-05-01T02:59:54.349Z,96252.63
2019-05-01T03:02:24.347Z,96251.61
2019-05-01T03:04:51.514Z,96249.46
2019-05-01T03:07:21.249Z,96247.65
2019-05-01T03:09:49.482Z,96241.78
2019-05-01T03:12:20.400Z,96251.39
2019-05-01T03:14:50.715Z,96249.02
2019-05-01T03:17:36.306Z,96250.60
2019-05-01T03:20:07.319Z,96246.88
2019-05-01T03:22:44.719Z,96242.45
2019-05-01T03:25:12.403Z,96244.28
2019-05-01T03:27:41.189Z,96247.00
2019-05-01T03:30:08.530Z,96242.58
2019-05-01T03:32:35.839Z,96245.75
2019-05-01T03:35:05.255Z,96240.22
2019-05-01T03:37:32.681Z,96243.48
2019-05-01T03:40:00.163Z,96244.05
2019-05-01T03:42:28.512Z,96255.11
2019-05-01T03:44:56.122Z,96254.44
2019-05-01T03:47:23.519Z,96246.41
2019-05-01T03:49:51.296Z,96253.54
2019-05-01T03:52:18.579Z,96258.95
2019-05-01T03:54:45.927Z,96250.95
2019-05-01T03:57:13.431Z,96242.13
2019-05-01T03:59:40.720Z,96243.27
2019-05-01T04:02:32.831Z,96250.13
2019-05-01T04:04:52.150Z,96248.11
2019-05-01T04:07:19.685Z,96252.17
2019-05-01T04:09:47.249Z,96241.79
2019-05-01T04:12:14.560Z,96243.00
2019-05-01T04:14:41.961Z,96238.92
2019-05-01T04:17:11.187Z,96239.81
2019-05-01T04:19:38.774Z,96242.29
2019-05-01T04:22:12.744Z,96245.77
2019-05-01T04:24:40.684Z,96248.00
2019-05-01T04:27:10.313Z,96253.63
2019-05-01T04:29:42.238Z,96254.95
2019-05-01T04:32:11.305Z,96256.73
2019-05-01T04:34:40.399Z,96249.81
2019-05-01T04:37:12.481Z,96256.44
2019-05-01T04:39:39.707Z,96257.28
2019-05-01T04:42:07.674Z,96258.14
2019-05-01T04:44:35.166Z,96263.19
2019-05-01T04:47:02.619Z,96264.76
2019-05-01T04:49:29.928Z,96275.72
2019-05-01T04:51:57.293Z,96273.23
2019-05-01T04:54:24.506Z,96273.87
2019-05-01T04:56:51.779Z,96276.92
2019-05-01T04:59:19.072Z,96279.93
2019-05-01T05:01:57.291Z,96284.91
2019-05-01T05:04:25.460Z,96290.85
2019-05-01T05:06:53.727Z,96294.59
2019-05-01T05:09:23.323Z,96292.73
2019-05-01T05:11:57.855Z,96298.84
2019-05-01T05:14:32.819Z,96289.97
2019-05-01T05:17:00.444Z,96289.06
2019-05-01T05:19:27.632Z,96296.98
2019-05-01T05:21:55.375Z,96286.34
2019-05-01T05:24:22.789Z,96292.22
2019-05-01T05:26:50.169Z,96286.00
2019-05-01T05:29:18.362Z,96286.00
2019-05-01T05:31:51.056Z,96291.55
2019-05-01T05:34:19.655Z,96293.36
2019-05-01T05:36:49.886Z,96295.84
2019-05-01T05:39:28.783Z,96294.27
2019-05-01T05:41:56.494Z,96295.41
2019-05-01T05:44:23.874Z,96288.61
2019-05-01T05:46:51.063Z,96296.98
2019-05-01T05:49:19.031Z,96289.97
2019-05-01T05:51:50.109Z,96291.55
2019-05-01T05:54:28.976Z,96290.64
2019-05-01T05:57:01.588Z,96291.43
2019-05-01T05:59:33.463Z,96291.88
2019-05-01T06:02:07.779Z,96287.66
2019-05-01T06:04:40.836Z,96280.84
2019-05-01T06:07:08.790Z,96283.63
2019-05-01T06:09:48.488Z,96285.08
2019-05-01T06:12:20.844Z,96294.44
2019-05-01T06:15:02.426Z,96288.44
2019-05-01T06:17:28.724Z,96283.00
2019-05-01T06:19:59.125Z,96293.75
2019-05-01T06:22:35.277Z,96288.77
2019-05-01T06:25:04.996Z,96290.98
2019-05-01T06:27:32.897Z,96301.22
2019-05-01T06:30:00.543Z,96307.20
2019-05-01T06:32:28.835Z,96301.36
2019-05-01T06:34:58.423Z,96300.61
2019-05-01T06:37:56.031Z,96308.64
2019-05-01T06:40:38.331Z,96309.83
2019-05-01T06:43:11.662Z,96298.83
2019-05-01T06:45:41.180Z,96303.28
2019-05-01T06:48:14.339Z,96303.69
2019-05-01T06:50:42.714Z,96308.73
2019-05-01T06:53:10.004Z,96307.93
2019-05-01T06:55:37.992Z,96311.25
2019-05-01T06:58:05.486Z,96302.77
2019-05-01T07:00:33.531Z,96301.67
2019-05-01T07:03:01.295Z,96300.23
2019-05-01T07:05:29.245Z,96300.89
2019-05-01T07:07:56.638Z,96308.14
2019-05-01T07:10:31.631Z,96315.25
2019-05-01T07:12:54.887Z,96306.56
2019-05-01T07:15:26.657Z,96316.33
2019-05-01T07:17:51.151Z,96318.98
2019-05-01T07:20:27.307Z,96313.76
2019-05-01T07:22:54.647Z,96319.14
2019-05-01T07:25:22.102Z,96321.89
2019-05-01T07:27:49.134Z,96319.55
2019-05-01T07:30:22.090Z,96313.36
2019-05-01T07:32:49.091Z,96315.21
2019-05-01T07:35:16.142Z,96318.20
2019-05-01T07:37:43.547Z,96314.13
2019-05-01T07:40:11.082Z,96311.03
2019-05-01T07:42:48.308Z,96316.35
2019-05-01T07:45:39.022Z,96308.12
2019-05-01T07:48:06.877Z,96311.24
2019-05-01T07:50:34.995Z,96315.27
2019-05-01T07:53:02.216Z,96318.92
2019-05-01T07:55:35.438Z,96315.88
2019-05-01T07:58:04.931Z,96313.07
2019-05-01T08:01:05.068Z,96318.49
2019-05-01T08:03:32.255Z,96321.38
2019-05-01T08:05:59.242Z,96320.64
2019-05-01T08:08:26.382Z,96322.89
2019-05-01T08:10:53.385Z,96326.53
2019-05-01T08:13:20.306Z,96328.61
2019-05-01T08:15:47.344Z,96327.92
2019-05-01T08:18:24.141Z,96325.88
2019-05-01T08:20:50.390Z,96329.85
2019-05-01T08:23:17.854Z,96328.47
2019-05-01T08:25:44.747Z,96321.00
2019-05-01T08:28:13.931Z,96321.55
2019-05-01T08:30:54.112Z,96321.48
2019-05-01T08:33:33.067Z,96319.37
2019-05-01T08:36:00.131Z,96323.14
2019-05-01T08:38:29.753Z,96321.48
2019-05-01T08:40:56.775Z,96323.10
2019-05-01T08:43:23.947Z,96319.40
2019-05-01T08:46:11.790Z,96323.70
2019-05-01T08:48:40.300Z,96322.75
2019-05-01T08:51:07.494Z,96324.83
2019-05-01T08:53:34.445Z,96327.78
2019-05-01T08:56:01.582Z,96323.67
2019-05-01T08:58:28.451Z,96323.17
2019-05-01T09:00:55.352Z,96318.61
2019-05-01T09:03:22.674Z,96328.84
2019-05-01T09:05:52.380Z,96325.10
2019-05-01T09:08:18.696Z,96315.92
2019-05-01T09:10:45.931Z,96310.31
2019-05-01T09:13:12.875Z,96313.44
2019-05-01T09:15:43.748Z,96310.67
2019-05-01T09:18:08.617Z,96315.01
2019-05-01T09:20:37.176Z,96312.23
2019-05-01T09:23:04.184Z,96311.69
2019-05-01T09:25:36.918Z,96311.69
2019-05-01T09:28:09.336Z,96314.83
2019-05-01T09:30:38.347Z,96308.92
2019-05-01T09:33:05.571Z,96306.19
2019-05-01T09:35:32.718Z,96309.01
2019-05-01T09:37:59.741Z,96309.74
2019-05-01T09:40:26.778Z,96307.16
2019-05-01T09:42:54.593Z,96300.58
2019-05-01T09:45:22.900Z,96306.77
2019-05-01T09:47:50.075Z,96312.61
2019-05-01T09:50:17.266Z,96309.84
2019-05-01T09:52:50.119Z,96303.02
2019-05-01T09:55:36.526Z,96303.85
2019-05-01T09:58:03.727Z,96297.58
2019-05-01T10:00:32.383Z,96301.73
2019-05-01T10:02:59.667Z,96303.53
2019-05-01T10:05:29.216Z,96303.67
2019-05-01T10:08:00.094Z,96303.53
2019-05-01T10:10:29.342Z,96298.97
2019-05-01T10:12:54.398Z,96290.87
2019-05-01T10:15:21.442Z,96288.44
2019-05-01T10:17:48.614Z,96294.31
2019-05-01T10:20:15.466Z,96299.91
2019-05-01T10:22:44.863Z,96293.44
2019-05-01T10:25:13.447Z,96294.05
2019-05-01T10:27:43.219Z,96298.75
2019-05-01T10:30:12.767Z,96295.27
2019-05-01T10:32:41.923Z,96292.70
2019-05-01T10:35:14.215Z,96298.19
2019-05-01T10:37:39.951Z,96293.89
2019-05-01T10:40:08.100Z,96284.65
2019-05-01T10:42:35.118Z,96297.52
2019-05-01T10:45:04.229Z,96294.52
2019-05-01T10:47:31.035Z,96286.83
2019-05-01T10:49:58.097Z,96292.31
2019-05-01T10:52:25.263Z,96285.63
2019-05-01T10:54:52.245Z,96291.34
2019-05-01T10:57:19.041Z,96297.47
2019-05-01T10:59:45.875Z,96298.94
2019-05-01T11:02:13.911Z,96297.56
2019-05-01T11:04:40.786Z,96288.99
2019-05-01T11:07:07.935Z,96295.51
2019-05-01T11:09:35.018Z,96299.16
2019-05-01T11:12:02.059Z,96302.17
2019-05-01T11:14:30.410Z,96286.27
2019-05-01T11:16:57.439Z,96281.87
2019-05-01T11:19:24.427Z,96277.45
2019-05-01T11:21:51.610Z,96279.31
2019-05-01T11:24:18.676Z,96277.59
2019-05-01T11:26:45.622Z,96281.32
2019-05-01T11:29:12.722Z,96279.64
2019-05-01T11:31:51.374Z,96272.03
2019-05-01T11:34:36.980Z,96272.47
2019-05-01T11:37:23.115Z,96269.81
2019-05-01T11:39:52.114Z,96268.18
2019-05-01T11:42:19.331Z,96264.43
2019-05-01T11:44:46.408Z,96264.75
2019-05-01T11:47:13.450Z,96263.91
2019-05-01T11:49:40.334Z,96264.22
2019-05-01T11:52:07.343Z,96265.23
2019-05-01T11:54:34.365Z,96260.58
2019-05-01T11:57:01.412Z,96256.92
2019-05-01T11:59:28.341Z,96248.83
2019-05-01T12:01:55.735Z,96247.97
2019-05-01T12:04:22.736Z,96248.83
2019-05-01T12:06:49.878Z,96250.76
2019-05-01T12:09:17.483Z,96258.23
2019-05-01T12:11:46.523Z,96249.66
2019-05-01T12:14:13.535Z,96246.52
2019-05-01T12:16:52.662Z,96252.41
2019-05-01T12:19:21.775Z,96241.97
2019-05-01T12:21:48.933Z,96244.29
2019-05-01T12:24:15.930Z,96236.40
2019-05-01T12:26:42.891Z,96241.92
2019-05-01T12:29:10.242Z,96244.13
2019-05-01T12:31:37.202Z,96239.88
2019-05-01T12:34:04.139Z,96235.17
2019-05-01T12:36:36.382Z,96238.17
2019-05-01T12:39:00.024Z,96241.92
2019-05-01T12:41:34.721Z,96242.27
2019-05-01T12:44:01.883Z,96236.31
2019-05-01T12:46:40.816Z,96236.15
2019-05-01T12:49:07.935Z,96228.89
2019-05-01T12:51:35.435Z,96234.49
2019-05-01T12:54:04.692Z,96226.02
2019-05-01T12:56:36.831Z,96225.06
2019-05-01T12:59:03.864Z,96234.34
2019-05-01T13:01:30.817Z,96222.55
2019-05-01T13:03:57.835Z,96215.17
2019-05-01T13:06:25.781Z,96218.65
2019-05-01T13:08:52.789Z,96232.63
2019-05-01T13:11:19.855Z,96217.85
2019-05-01T13:13:46.651Z,96217.28
2019-05-01T13:16:13.725Z,96214.25
2019-05-01T13:18:40.642Z,96206.16
2019-05-01T13:21:09.948Z,96209.48
2019-05-01T13:23:36.911Z,96208.22
2019-05-01T13:26:05.886Z,96206.21
2019-05-01T13:28:37.290Z,96203.27
2019-05-01T13:31:04.635Z,96200.36
2019-05-01T13:33:31.639Z,96202.70
2019-05-01T13:35:58.887Z,96194.31
2019-05-01T13:38:25.779Z,96197.06
2019-05-01T13:40:53.231Z,96190.39
2019-05-01T13:43:20.318Z,96185.88
2019-05-01T13:45:47.261Z,96185.57
2019-05-01T13:48:14.356Z,96187.23
2019-05-01T13:50:41.319Z,96182.45
2019-05-01T13:53:08.293Z,96181.63
2019-05-01T13:55:35.287Z,96180.16
2019-05-01T13:58:02.451Z,96189.64
2019-05-01T14:00:29.461Z,96179.16
2019-05-01T14:02:56.734Z,96173.45
2019-05-01T14:05:23.929Z,96180.97
2019-05-01T14:07:50.816Z,96182.87
2019-05-01T14:10:17.945Z,96175.88
2019-05-01T14:12:45.219Z,96180.47
2019-05-01T14:15:12.656Z,96176.23
2019-05-01T14:17:39.623Z,96185.64
2019-05-01T14:20:16.443Z,96181.41
2019-05-01T14:22:57.160Z,96177.31
2019-05-01T14:25:24.072Z,96177.52
2019-05-01T14:27:51.083Z,96183.39
2019-05-01T14:30:18.353Z,96185.95
2019-05-01T14:32:45.398Z,96182.91
2019-05-01T14:35:13.811Z,96192.92
2019-05-01T14:37:40.674Z,96184.36
2019-05-01T14:40:08.373Z,96191.30
2019-05-01T14:42:35.407Z,96185.62
2019-05-01T14:45:06.406Z,96180.36
2019-05-01T14:47:33.415Z,96189.29
2019-05-01T14:50:00.318Z,96189.77
2019-05-01T14:52:27.317Z,96185.88
2019-05-01T14:54:54.373Z,96187.70
2019-05-01T14:57:21.496Z,96181.67
2019-05-01T14:59:48.542Z,96186.20
2019-05-01T15:02:15.594Z,96186.02
2019-05-01T15:04:42.552Z,96182.72
2019-05-01T15:07:11.237Z,96187.25
2019-05-01T15:09:38.346Z,96177.42
2019-05-01T15:12:07.982Z,96178.61
2019-05-01T15:14:36.891Z,96186.53
2019-05-01T15:17:08.579Z,96183.66
2019-05-01T15:19:43.542Z,96184.36
2019-05-01T15:22:10.546Z,96181.87
2019-05-01T15:24:37.548Z,96181.94
2019-05-01T15:27:04.680Z,96179.61
2019-05-01T15:29:31.697Z,96174.98
2019-05-01T15:31:59.008Z,96177.59
2019-05-01T15:34:25.816Z,96171.94
2019-05-01T15:36:52.731Z,96175.72
2019-05-01T15:39:30.693Z,96172.03
2019-05-01T15:42:12.733Z,96169.13
2019-05-01T15:44:41.581Z,96167.40
2019-05-01T15:47:08.780Z,96164.09
2019-05-01T15:49:35.730Z,96164.13
2019-05-01T15:52:03.335Z,96162.79
2019-05-01T15:54:30.382Z,96166.94
2019-05-01T15:56:57.275Z,96160.27
2019-05-01T15:59:24.303Z,96157.72
2019-05-01T16:01:51.477Z,96161.86
2019-05-01T16:04:18.594Z,96154.03
2019-05-01T16:06:45.704Z,96159.13
2019-05-01T16:09:12.978Z,96154.25
2019-05-01T16:11:44.875Z,96154.84
2019-05-01T16:14:11.996Z,96148.95
2019-05-01T16:16:38.888Z,96147.97
2019-05-01T16:19:05.731Z,96146.42
2019-05-01T16:21:32.725Z,96156.81
2019-05-01T16:24:00.050Z,96148.98
2019-05-01T16:26:26.992Z,96141.95
2019-05-01T16:28:53.978Z,96144.30
2019-05-01T16:31:20.999Z,96146.08
2019-05-01T16:33:47.933Z,96142.73
2019-05-01T16:36:14.959Z,96147.06
2019-05-01T16:38:44.086Z,96147.67
2019-05-01T16:44:38.207Z,96150.02
2019-05-01T16:47:05.320Z,96146.68
2019-05-01T16:49:32.488Z,96139.44
2019-05-01T16:51:59.551Z,96147.28
2019-05-01T16:54:26.549Z,96143.14
2019-05-01T16:56:53.486Z,96147.25
2019-05-01T16:59:20.271Z,96154.06
2019-05-01T17:01:51.809Z,96152.89
2019-05-01T17:04:29.401Z,96154.45
2019-05-01T17:07:07.220Z,96150.33
2019-05-01T17:09:40.219Z,96147.78
2019-05-01T17:12:07.468Z,96145.41
2019-05-01T17:14:34.576Z,96139.53
2019-05-01T17:17:01.600Z,96141.87
2019-05-01T17:19:28.529Z,96135.00
2019-05-01T17:21:55.452Z,96134.80
2019-05-01T17:24:22.400Z,96139.84
2019-05-01T17:26:49.384Z,96137.50
2019-05-01T17:29:16.379Z,96143.73
2019-05-01T17:31:43.419Z,96138.23
2019-05-01T17:34:11.183Z,96140.95
2019-05-01T17:36:38.158Z,96137.97
2019-05-01T17:39:05.328Z,96140.51
2019-05-01T17:41:32.328Z,96139.48
2019-05-01T17:43:59.494Z,96138.09
2019-05-01T17:46:26.411Z,96135.14
2019-05-01T17:48:53.380Z,96141.03
2019-05-01T17:51:20.386Z,96133.16
2019-05-01T17:53:47.328Z,96145.47
2019-05-01T17:56:15.224Z,96146.97
2019-05-01T17:58:43.067Z,96144.17
2019-05-01T18:01:33.141Z,96148.63
2019-05-01T18:12:55.082Z,96157.97
2019-05-01T18:15:22.317Z,96167.02
2019-05-01T18:17:49.427Z,96164.81
2019-05-01T18:20:16.369Z,96165.91
2019-05-01T18:22:45.217Z,96166.27
2019-05-01T18:25:14.163Z,96169.73
2019-05-01T18:27:54.450Z,96167.00
2019-05-01T18:30:23.787Z,96171.31
2019-05-01T18:32:52.529Z,96165.84
2019-05-01T18:35:19.815Z,96176.61
2019-05-01T18:37:57.483Z,96179.16
2019-05-01T18:40:29.220Z,96182.92
2019-05-01T18:42:56.142Z,96186.46
2019-05-01T18:45:49.685Z,96182.83
2019-05-01T18:48:17.536Z,96186.94
2019-05-01T18:50:49.314Z,96193.62
2019-05-01T18:53:13.980Z,96196.03
2019-05-01T18:55:40.873Z,96182.00
2019-05-01T18:58:07.931Z,96178.90
2019-05-01T19:00:35.039Z,96184.57
2019-05-01T19:03:04.213Z,96185.56
2019-05-01T19:05:31.471Z,96185.36
2019-05-01T19:07:58.390Z,96189.05
2019-05-01T19:10:25.509Z,96190.00
2019-05-01T19:12:52.435Z,96193.89
2019-05-01T19:15:19.697Z,96197.98
2019-05-01T19:17:46.863Z,96196.83
2019-05-01T19:20:14.095Z,96199.36
2019-05-01T19:22:40.927Z,96193.10
2019-05-01T19:25:10.883Z,96189.58
2019-05-01T19:27:37.439Z,96198.36
2019-05-01T19:30:09.886Z,96193.30
2019-05-01T19:32:36.258Z,96193.50
2019-05-01T19:35:07.090Z,96183.16
2019-05-01T19:37:33.933Z,96191.98
2019-05-01T19:40:01.593Z,96194.56
2019-05-01T19:42:28.805Z,96200.66
2019-05-01T19:44:57.428Z,96199.88
2019-05-01T19:47:25.176Z,96204.19
2019-05-01T19:49:54.560Z,96204.77
2019-05-01T19:52:21.314Z,96211.77
2019-05-01T19:54:48.325Z,96210.55
2019-05-01T19:57:15.758Z,96211.28
2019-05-01T19:59:42.857Z,96205.55
2019-05-01T20:02:11.602Z,96208.22
2019-05-01T20:04:38.607Z,96207.58
2019-05-01T20:07:10.693Z,96196.80
2019-05-01T20:09:35.427Z,96213.72
2019-05-01T20:12:03.491Z,96233.41
2019-05-01T20:14:30.662Z,96234.70
2019-05-01T20:16:57.882Z,96219.57
2019-05-01T20:19:24.963Z,96193.19
2019-05-01T20:21:52.105Z,96208.55
2019-05-01T20:24:19.429Z,96209.48
2019-05-01T20:26:46.982Z,96202.96
2019-05-01T20:29:14.109Z,96194.75
2019-05-01T20:31:45.870Z,96204.46
2019-05-01T20:34:12.075Z,96202.07
2019-05-01T20:36:39.782Z,96205.33
2019-05-01T20:39:07.297Z,96224.59
2019-05-01T20:41:34.400Z,96217.52
2019-05-01T20:44:01.744Z,96210.61
2019-05-01T20:46:28.624Z,96208.01
2019-05-01T20:48:56.160Z,96212.86
2019-05-01T20:51:24.938Z,96213.02
2019-05-01T20:53:52.469Z,96209.86
2019-05-01T20:56:21.488Z,96199.49
2019-05-01T20:58:48.648Z,96194.34
2019-05-01T21:01:15.914Z,96191.01
2019-05-01T21:03:44.721Z,96185.34
2019-05-01T21:06:13.658Z,96184.40
2019-05-01T21:08:42.659Z,96185.01
2019-05-01T21:11:13.061Z,96182.48
2019-05-01T21:13:40.020Z,96186.16
2019-05-01T21:16:07.075Z,96176.16
2019-05-01T21:18:34.097Z,96182.73
2019-05-01T21:21:03.318Z,96178.38
2019-05-01T21:23:30.875Z,96179.12
2019-05-01T21:25:57.678Z,96168.37
2019-05-01T21:28:24.770Z,96174.34
2019-05-01T21:30:54.388Z,96169.91
2019-05-01T21:33:23.634Z,96169.91
2019-05-01T21:35:50.199Z,96164.24
2019-05-01T21:38:17.199Z,96162.84
2019-05-01T21:40:44.103Z,96171.75
2019-05-01T21:43:13.418Z,96157.08
2019-05-01T21:45:39.977Z,96158.17
2019-05-01T21:48:07.246Z,96120.22
2019-05-01T21:50:34.253Z,96160.55
2019-05-01T21:53:03.309Z,96158.11
2019-05-01T21:55:31.790Z,96156.07
2019-05-01T21:57:58.835Z,96150.16
2019-05-01T22:00:28.576Z,96150.16
2019-05-01T22:02:55.620Z,96145.64
2019-05-01T22:05:22.773Z,96148.36
2019-05-01T22:07:49.796Z,96149.73
2019-05-01T22:10:16.814Z,96138.83
2019-05-01T22:12:48.954Z,96137.31
2019-05-01T22:15:31.169Z,96129.03
2019-05-01T22:18:00.179Z,96111.16
2019-05-01T22:20:29.003Z,96111.16
2019-05-01T22:23:00.726Z,96135.27
2019-05-01T22:25:32.326Z,96129.76
2019-05-01T22:28:13.927Z,96114.45
2019-05-01T22:30:42.270Z,96114.45
2019-05-01T22:33:09.948Z,96120.95
2019-05-01T22:35:47.572Z,96140.19
2019-05-01T22:38:14.714Z,96119.25
2019-05-01T22:40:47.486Z,96119.25
2019-05-01T22:43:14.782Z,96125.52
2019-05-01T22:45:41.724Z,96141.40
2019-05-01T22:48:08.526Z,96132.25
2019-05-01T22:50:35.445Z,96122.05
2019-05-01T22:53:02.586Z,96122.05
2019-05-01T22:55:29.425Z,96111.98
2019-05-01T22:57:56.611Z,96115.95
2019-05-01T23:00:40.338Z,96126.82
2019-05-01T23:03:09.190Z,96129.97
2019-05-01T23:05:36.600Z,96121.48
2019-05-01T23:08:03.878Z,96121.48
2019-05-01T23:10:31.307Z,96117.25
2019-05-01T23:12:58.505Z,96115.31
2019-05-01T23:15:27.832Z,96110.73
2019-05-01T23:17:55.023Z,96115.14
2019-05-01T23:20:22.926Z,96116.07
2019-05-01T23:22:49.798Z,96112.05
2019-05-01T23:25:17.022Z,96106.39
2019-05-01T23:27:44.130Z,96102.09
2019-05-01T23:30:13.383Z,96108.11
2019-05-01T23:32:40.576Z,96106.97
2019-05-01T23:35:07.902Z,96119.11
2019-05-01T23:37:36.087Z,96113.31
2019-05-01T23:40:05.512Z,96113.31
2019-05-01T23:42:32.479Z,96117.25
2019-05-01T23:44:59.386Z,96115.45
2019-05-01T23:47:26.294Z,96109.16
2019-05-01T23:49:53.842Z,96102.88
2019-05-01T23:52:21.163Z,96102.09
2019-05-01T23:54:48.087Z,96099.37
2019-05-01T23:57:18.890Z,96099.37
2019-05-01T23:59:43.959Z,96098.08
